createdAt,value
2022-07-25T00:02:43.055Z,15.48
2022-07-25T00:05:21.368Z,15.38
2022-07-25T00:08:17.421Z,15.23
2022-07-25T00:10:55.144Z,15.19
2022-07-25T00:13:32.280Z,15.14
2022-07-25T00:19:40.119Z,15.21
2022-07-25T00:25:16.299Z,15.34
2022-07-25T00:28:15.084Z,15.30
2022-07-25T00:33:30.887Z,14.99
2022-07-25T00:48:12.542Z,15.23
2022-07-25T00:50:59.956Z,15.07
2022-07-25T00:53:38.251Z,15.04
2022-07-25T00:56:12.259Z,15.13
2022-07-25T00:59:00.367Z,15.03
2022-07-25T01:01:48.377Z,14.85
2022-07-25T01:04:19.287Z,14.83
2022-07-25T01:07:15.583Z,14.69
2022-07-25T01:09:48.086Z,14.70
2022-07-25T01:16:01.111Z,14.63
2022-07-25T01:18:51.874Z,14.68
2022-07-25T01:22:01.939Z,14.72
2022-07-25T01:24:52.924Z,14.58
2022-07-25T01:27:33.298Z,14.68
2022-07-25T01:30:19.284Z,14.75
2022-07-25T01:36:15.699Z,14.74
2022-07-25T01:38:54.448Z,14.74
2022-07-25T01:41:54.299Z,14.85
2022-07-25T01:47:36.879Z,14.71
2022-07-25T01:50:16.249Z,14.70
2022-07-25T01:53:10.362Z,14.53
2022-07-25T01:55:50.642Z,14.66
2022-07-25T02:01:52.812Z,14.45
2022-07-25T02:04:34.027Z,14.49
2022-07-25T02:07:36.487Z,14.59
2022-07-25T02:10:14.016Z,14.56
2022-07-25T02:13:05.064Z,14.62
2022-07-25T02:15:57.489Z,14.53
2022-07-25T02:21:55.767Z,14.28
2022-07-25T02:25:12.314Z,14.28
2022-07-25T02:31:17.597Z,14.39
2022-07-25T02:34:28.757Z,14.45
2022-07-25T02:39:53.728Z,14.47
2022-07-25T02:43:20.411Z,14.53
2022-07-25T02:46:02.302Z,14.48
2022-07-25T02:52:07.796Z,14.73
2022-07-25T02:58:06.930Z,14.69
2022-07-25T03:01:32.778Z,14.66
2022-07-25T03:04:27.608Z,14.81
2022-07-25T03:07:46.678Z,14.79
2022-07-25T03:10:11.164Z,14.83
2022-07-25T03:13:24.451Z,15.10
2022-07-25T03:16:04.985Z,15.15
2022-07-25T03:18:42.059Z,15.07
2022-07-25T03:21:14.671Z,14.97
2022-07-25T03:24:01.098Z,14.93
2022-07-25T03:26:27.644Z,14.98
2022-07-25T03:28:54.185Z,15.14
2022-07-25T03:31:20.707Z,15.28
2022-07-25T03:33:47.316Z,15.41
2022-07-25T03:36:15.306Z,15.46
2022-07-25T03:38:42.085Z,15.55
2022-07-25T03:41:08.620Z,15.57
2022-07-25T03:43:35.238Z,15.62
2022-07-25T03:46:01.878Z,15.70
2022-07-25T03:48:28.520Z,15.74
2022-07-25T03:50:56.420Z,15.88
2022-07-25T03:53:26.018Z,15.94
2022-07-25T03:55:52.563Z,16.11
2022-07-25T03:58:19.057Z,16.10
2022-07-25T04:00:45.609Z,16.22
2022-07-25T04:03:12.902Z,16.41
2022-07-25T04:05:45.529Z,16.37
2022-07-25T04:08:14.325Z,16.58
2022-07-25T04:10:40.844Z,16.65
2022-07-25T04:13:08.374Z,16.71
2022-07-25T04:15:34.946Z,17.00
2022-07-25T04:18:01.436Z,17.12
2022-07-25T04:20:28.726Z,17.14
2022-07-25T04:22:55.916Z,17.23
2022-07-25T04:25:25.725Z,17.39
2022-07-25T04:27:53.411Z,17.39
2022-07-25T04:30:24.726Z,17.48
2022-07-25T04:32:51.639Z,17.58
2022-07-25T04:35:18.125Z,17.69
2022-07-25T04:37:44.727Z,17.71
2022-07-25T04:40:11.713Z,17.75
2022-07-25T04:42:39.233Z,17.95
2022-07-25T04:45:06.175Z,18.03
2022-07-25T04:47:34.954Z,18.07
2022-07-25T04:50:01.587Z,18.11
2022-07-25T04:52:28.165Z,18.15
2022-07-25T04:54:55.839Z,18.30
2022-07-25T04:57:22.358Z,18.21
2022-07-25T04:59:48.984Z,18.32
2022-07-25T05:02:15.566Z,18.18
2022-07-25T05:04:45.503Z,18.29
2022-07-25T05:07:12.202Z,18.40
2022-07-25T05:09:41.132Z,18.40
2022-07-25T05:12:08.007Z,18.30
2022-07-25T05:14:35.766Z,18.43
2022-07-25T05:17:03.879Z,18.47
2022-07-25T05:19:30.619Z,18.65
2022-07-25T05:21:57.386Z,18.82
2022-07-25T05:24:24.037Z,18.78
2022-07-25T05:26:50.739Z,18.90
2022-07-25T05:29:19.825Z,18.93
2022-07-25T05:31:46.732Z,19.00
2022-07-25T05:34:13.264Z,19.03
2022-07-25T05:36:43.032Z,19.10
2022-07-25T05:39:14.615Z,19.11
2022-07-25T05:41:41.436Z,19.19
2022-07-25T05:44:15.031Z,19.29
2022-07-25T05:46:41.709Z,19.30
2022-07-25T05:49:11.231Z,19.23
2022-07-25T05:51:37.905Z,19.35
2022-07-25T05:54:04.808Z,19.37
2022-07-25T05:56:31.534Z,19.27
2022-07-25T05:58:58.200Z,19.49
2022-07-25T06:01:24.917Z,19.66
2022-07-25T06:03:51.587Z,19.65
2022-07-25T06:06:18.104Z,19.88
2022-07-25T06:08:44.804Z,19.93
2022-07-25T06:11:12.055Z,19.98
2022-07-25T06:13:39.154Z,19.91
2022-07-25T06:16:07.438Z,20.14
2022-07-25T06:18:34.078Z,20.23
2022-07-25T06:21:00.582Z,20.31
2022-07-25T06:23:27.785Z,20.54
2022-07-25T06:25:55.609Z,20.76
2022-07-25T06:28:22.114Z,20.97
2022-07-25T06:30:50.265Z,20.84
2022-07-25T06:33:16.783Z,20.92
2022-07-25T06:35:43.356Z,20.89
2022-07-25T06:38:10.200Z,21.13
2022-07-25T06:40:36.750Z,21.56
2022-07-25T06:43:04.859Z,21.59
2022-07-25T06:45:31.432Z,21.63
2022-07-25T06:47:57.959Z,21.85
2022-07-25T06:50:24.545Z,22.06
2022-07-25T06:52:51.063Z,22.10
2022-07-25T06:55:19.062Z,21.97
2022-07-25T06:57:45.585Z,22.12
2022-07-25T07:00:13.174Z,22.28
2022-07-25T07:03:08.105Z,22.24
2022-07-25T07:05:36.828Z,22.43
2022-07-25T07:08:03.855Z,22.41
2022-07-25T07:10:31.193Z,22.46
2022-07-25T07:13:24.706Z,22.65
2022-07-25T07:15:51.554Z,22.85
2022-07-25T07:18:19.649Z,22.99
2022-07-25T07:20:47.195Z,22.74
2022-07-25T07:23:16.622Z,22.76
2022-07-25T07:25:45.818Z,22.87
2022-07-25T07:28:13.104Z,23.12
2022-07-25T07:33:27.214Z,23.27
2022-07-25T07:35:55.976Z,22.80
2022-07-25T07:38:23.891Z,23.51
2022-07-25T07:40:51.124Z,23.55
2022-07-25T07:43:17.699Z,23.53
2022-07-25T07:45:44.306Z,24.02
2022-07-25T07:48:10.940Z,24.01
2022-07-25T07:50:37.861Z,23.89
2022-07-25T07:53:04.561Z,24.03
2022-07-25T07:55:46.550Z,23.79
2022-07-25T07:58:17.373Z,23.83
2022-07-25T08:00:49.578Z,23.70
2022-07-25T08:03:21.389Z,24.23
2022-07-25T08:05:49.060Z,24.07
2022-07-25T08:08:15.930Z,24.45
2022-07-25T08:10:44.479Z,24.34
2022-07-25T08:13:14.605Z,24.56
2022-07-25T08:15:42.565Z,24.99
2022-07-25T08:18:17.594Z,25.10
2022-07-25T08:20:45.247Z,25.14
2022-07-25T08:23:11.794Z,25.12
2022-07-25T08:25:38.703Z,25.27
2022-07-25T08:28:06.567Z,25.17
2022-07-25T08:30:33.878Z,25.22
2022-07-25T08:33:05.866Z,25.10
2022-07-25T08:35:33.862Z,25.47
2022-07-25T08:38:02.103Z,25.36
2022-07-25T08:40:29.886Z,25.37
2022-07-25T08:42:57.109Z,25.60
2022-07-25T08:45:24.775Z,26.09
2022-07-25T08:47:53.116Z,26.47
2022-07-25T08:50:21.535Z,26.51
2022-07-25T08:52:49.273Z,26.16
2022-07-25T08:55:20.074Z,26.18
2022-07-25T08:57:52.630Z,26.39
2022-07-25T09:00:22.394Z,26.28
2022-07-25T09:02:57.442Z,26.25
2022-07-25T09:05:25.415Z,26.34
2022-07-25T09:07:52.878Z,26.14
2022-07-25T09:10:22.380Z,26.18
2022-07-25T09:12:53.285Z,26.78
2022-07-25T09:15:40.400Z,27.03
2022-07-25T09:18:15.936Z,27.14
2022-07-25T09:20:46.583Z,26.97
2022-07-25T09:23:27.504Z,26.93
2022-07-25T09:26:07.895Z,26.62
2022-07-25T09:28:45.591Z,26.80
2022-07-25T09:31:13.724Z,26.75
2022-07-25T09:33:49.732Z,27.06
2022-07-25T09:36:16.301Z,27.20
2022-07-25T09:38:52.846Z,26.85
2022-07-25T09:41:19.904Z,26.59
2022-07-25T09:43:46.463Z,26.77
2022-07-25T09:46:13.307Z,27.31
2022-07-25T09:48:40.915Z,27.14
2022-07-25T09:51:07.703Z,27.12
2022-07-25T09:53:34.427Z,27.58
2022-07-25T09:56:01.324Z,27.57
2022-07-25T09:58:29.188Z,26.87
2022-07-25T10:01:06.915Z,27.01
2022-07-25T10:03:45.026Z,27.11
2022-07-25T10:06:25.049Z,27.33
2022-07-25T10:08:51.970Z,27.29
2022-07-25T10:11:28.054Z,27.50
2022-07-25T10:13:55.286Z,27.55
2022-07-25T10:16:26.382Z,27.48
2022-07-25T10:18:57.387Z,27.44
2022-07-25T10:21:27.997Z,27.58
2022-07-25T10:24:03.938Z,28.01
2022-07-25T10:26:31.486Z,27.85
2022-07-25T10:28:58.454Z,27.76
2022-07-25T10:31:29.169Z,27.81
2022-07-25T10:33:58.832Z,27.64
2022-07-25T10:36:33.962Z,27.33
2022-07-25T10:39:02.093Z,27.43
2022-07-25T10:41:29.823Z,27.87
2022-07-25T10:44:00.480Z,27.69
2022-07-25T10:46:28.127Z,27.55
2022-07-25T10:49:04.223Z,27.65
2022-07-25T10:51:41.554Z,27.59
2022-07-25T10:54:16.361Z,28.15
2022-07-25T10:56:57.414Z,28.64
2022-07-25T10:59:34.401Z,28.37
2022-07-25T11:02:01.705Z,27.87
2022-07-25T11:04:28.969Z,27.95
2022-07-25T11:06:55.554Z,27.97
2022-07-25T11:09:28.221Z,27.73
2022-07-25T11:11:59.481Z,28.00
2022-07-25T11:14:33.068Z,27.96
2022-07-25T11:17:23.367Z,27.54
2022-07-25T11:20:00.656Z,27.92
2022-07-25T11:22:28.869Z,28.41
2022-07-25T11:24:57.117Z,28.16
2022-07-25T11:27:26.039Z,27.62
2022-07-25T11:29:52.632Z,28.02
2022-07-25T11:32:19.451Z,28.45
2022-07-25T11:34:51.666Z,28.17
2022-07-25T11:37:18.608Z,28.01
2022-07-25T11:39:46.885Z,27.65
2022-07-25T11:42:16.712Z,28.06
2022-07-25T11:44:47.875Z,28.35
2022-07-25T11:47:30.840Z,28.44
2022-07-25T11:50:02.418Z,28.73
2022-07-25T11:52:34.650Z,28.82
2022-07-25T11:55:03.841Z,28.03
2022-07-25T11:57:35.321Z,28.37
2022-07-25T12:00:05.076Z,28.25
2022-07-25T12:02:33.349Z,28.20
2022-07-25T12:05:08.602Z,28.27
2022-07-25T12:07:40.959Z,28.50
2022-07-25T12:10:10.706Z,28.52
2022-07-25T12:12:51.221Z,28.09
2022-07-25T12:15:24.032Z,28.38
2022-07-25T12:17:51.849Z,28.45
2022-07-25T12:20:22.641Z,28.33
2022-07-25T12:22:52.115Z,28.58
2022-07-25T12:25:19.110Z,28.52
2022-07-25T12:27:45.805Z,28.31
2022-07-25T12:30:12.883Z,28.32
2022-07-25T12:32:39.526Z,28.63
2022-07-25T12:35:07.175Z,28.91
2022-07-25T12:37:33.797Z,28.78
2022-07-25T12:40:02.624Z,28.71
2022-07-25T12:42:29.188Z,28.81
2022-07-25T12:44:56.517Z,28.50
2022-07-25T12:47:23.884Z,28.67
2022-07-25T12:49:50.551Z,28.75
2022-07-25T12:52:17.674Z,28.48
2022-07-25T12:54:44.396Z,28.77
2022-07-25T12:57:12.339Z,28.87
2022-07-25T12:59:39.528Z,28.38
2022-07-25T13:02:06.113Z,28.69
2022-07-25T13:04:32.839Z,28.60
2022-07-25T13:07:00.046Z,28.57
2022-07-25T13:09:26.856Z,28.48
2022-07-25T13:11:53.632Z,28.66
2022-07-25T13:14:20.328Z,28.36
2022-07-25T13:16:47.866Z,28.37
2022-07-25T13:19:15.290Z,28.69
2022-07-25T13:21:42.907Z,28.69
2022-07-25T13:24:11.095Z,28.87
2022-07-25T13:26:38.547Z,28.78
2022-07-25T13:29:11.832Z,28.77
2022-07-25T13:31:41.090Z,28.97
2022-07-25T13:34:08.691Z,29.18
2022-07-25T13:36:36.626Z,29.30
2022-07-25T13:39:03.714Z,28.90
2022-07-25T13:41:30.576Z,28.75
2022-07-25T13:43:57.395Z,28.72
2022-07-25T13:46:24.855Z,28.95
2022-07-25T13:48:51.430Z,28.73
2022-07-25T13:51:18.009Z,28.61
2022-07-25T13:53:44.957Z,28.27
2022-07-25T13:56:13.281Z,28.21
2022-07-25T13:58:40.709Z,28.18
2022-07-25T14:01:08.670Z,28.20
2022-07-25T14:03:36.818Z,28.08
2022-07-25T14:06:04.337Z,28.35
2022-07-25T14:08:31.227Z,28.34
2022-07-25T14:10:57.890Z,28.41
2022-07-25T14:13:24.430Z,28.45
2022-07-25T14:15:51.144Z,28.62
2022-07-25T14:18:17.710Z,28.50
2022-07-25T14:20:44.546Z,28.56
2022-07-25T14:23:11.070Z,28.46
2022-07-25T14:25:38.050Z,28.16
2022-07-25T14:28:04.988Z,28.16
2022-07-25T14:30:31.573Z,27.94
2022-07-25T14:32:58.068Z,28.05
2022-07-25T14:35:28.774Z,28.05
2022-07-25T14:37:58.457Z,28.05
2022-07-25T14:40:25.014Z,28.13
2022-07-25T14:42:52.239Z,28.09
2022-07-25T14:45:21.936Z,28.18
2022-07-25T14:47:48.478Z,28.17
2022-07-25T14:50:15.033Z,28.12
2022-07-25T14:52:41.691Z,28.15
2022-07-25T14:55:08.850Z,28.19
2022-07-25T14:57:35.584Z,28.43
2022-07-25T15:00:04.212Z,28.38
2022-07-25T15:02:30.694Z,28.50
2022-07-25T15:04:57.360Z,28.59
2022-07-25T15:07:24.648Z,28.86
2022-07-25T15:09:51.264Z,29.14
2022-07-25T15:12:19.718Z,28.97
2022-07-25T15:14:46.710Z,28.89
2022-07-25T15:17:13.626Z,28.69
2022-07-25T15:19:40.271Z,28.74
2022-07-25T15:22:06.766Z,28.66
2022-07-25T15:24:50.143Z,28.38
2022-07-25T15:27:19.789Z,28.38
2022-07-25T15:29:46.726Z,28.34
2022-07-25T15:32:13.316Z,28.41
2022-07-25T15:34:39.907Z,28.37
2022-07-25T15:37:08.473Z,28.27
2022-07-25T15:39:35.087Z,28.17
2022-07-25T15:42:01.717Z,28.05
2022-07-25T15:44:28.222Z,28.03
2022-07-25T15:46:54.918Z,28.16
2022-07-25T15:49:22.694Z,28.30
2022-07-25T15:51:49.619Z,28.28
2022-07-25T15:54:16.224Z,28.21
2022-07-25T15:56:42.824Z,28.29
2022-07-25T15:59:09.845Z,28.36
2022-07-25T16:01:37.747Z,28.42
2022-07-25T16:04:04.452Z,28.29
2022-07-25T16:06:31.114Z,28.17
2022-07-25T16:08:57.611Z,28.14
2022-07-25T16:11:27.298Z,28.16
2022-07-25T16:13:54.219Z,28.13
2022-07-25T16:16:22.207Z,28.14
2022-07-25T16:18:48.950Z,28.08
2022-07-25T16:21:17.583Z,28.24
2022-07-25T16:23:45.700Z,28.37
2022-07-25T16:26:13.219Z,28.25
2022-07-25T16:28:40.715Z,28.34
2022-07-25T16:31:07.356Z,28.22
2022-07-25T16:33:33.982Z,28.30
2022-07-25T16:36:01.115Z,28.29
2022-07-25T16:38:28.873Z,28.27
2022-07-25T16:40:55.557Z,28.26
2022-07-25T16:43:22.078Z,28.21
2022-07-25T16:45:48.614Z,28.22
2022-07-25T16:48:15.160Z,28.17
2022-07-25T16:50:41.642Z,28.06
2022-07-25T16:53:08.169Z,28.03
2022-07-25T16:55:34.962Z,27.93
2022-07-25T16:58:02.910Z,27.75
2022-07-25T17:00:30.139Z,27.62
2022-07-25T17:02:57.025Z,27.62
2022-07-25T17:05:23.582Z,27.72
2022-07-25T17:07:56.990Z,27.62
2022-07-25T17:10:25.948Z,27.71
2022-07-25T17:12:52.532Z,27.64
2022-07-25T17:15:20.755Z,27.66
2022-07-25T17:17:47.479Z,27.63
2022-07-25T17:20:15.725Z,27.58
2022-07-25T17:22:42.222Z,27.55
2022-07-25T17:25:12.028Z,27.43
2022-07-25T17:27:38.590Z,27.40
2022-07-25T17:30:05.965Z,27.43
2022-07-25T17:32:35.320Z,27.50
2022-07-25T17:35:01.804Z,27.41
2022-07-25T17:37:28.365Z,27.41
2022-07-25T17:39:55.163Z,27.44
2022-07-25T17:42:24.544Z,27.32
2022-07-25T17:44:54.358Z,27.21
2022-07-25T17:47:22.231Z,27.28
2022-07-25T17:49:52.509Z,27.31
2022-07-25T17:52:19.089Z,27.24
2022-07-25T17:54:47.944Z,27.27
2022-07-25T17:57:14.435Z,27.33
2022-07-25T17:59:41.004Z,27.29
2022-07-25T18:02:07.671Z,27.16
2022-07-25T18:04:35.276Z,27.03
2022-07-25T18:07:01.805Z,26.98
2022-07-25T18:09:28.410Z,26.93
2022-07-25T18:11:54.898Z,26.92
2022-07-25T18:14:21.828Z,26.82
2022-07-25T18:16:48.530Z,26.76
2022-07-25T18:19:15.007Z,26.71
2022-07-25T18:21:44.096Z,26.64
2022-07-25T18:24:11.530Z,26.60
2022-07-25T18:26:41.960Z,26.51
2022-07-25T18:29:09.636Z,26.50
2022-07-25T18:31:36.626Z,26.47
2022-07-25T18:34:03.861Z,26.46
2022-07-25T18:36:30.965Z,26.40
2022-07-25T18:38:58.730Z,26.37
2022-07-25T18:41:30.138Z,26.27
2022-07-25T18:43:57.037Z,26.17
2022-07-25T18:46:23.983Z,26.12
2022-07-25T18:48:50.685Z,26.06
2022-07-25T18:51:17.465Z,25.99
2022-07-25T18:53:48.011Z,25.93
2022-07-25T18:56:16.055Z,25.82
2022-07-25T18:58:42.977Z,25.72
2022-07-25T19:01:10.232Z,25.65
2022-07-25T19:03:37.600Z,25.66
2022-07-25T19:06:05.483Z,25.58
2022-07-25T19:08:32.880Z,25.52
2022-07-25T19:10:59.570Z,25.39
2022-07-25T19:13:48.442Z,25.23
2022-07-25T19:16:13.955Z,25.10
2022-07-25T19:18:41.624Z,25.07
2022-07-25T19:21:08.120Z,25.12
2022-07-25T19:23:34.714Z,25.10
2022-07-25T19:26:02.217Z,25.12
2022-07-25T19:28:29.141Z,24.98
2022-07-25T19:30:56.761Z,24.87
2022-07-25T19:33:24.598Z,24.84
2022-07-25T19:35:52.427Z,24.78
2022-07-25T19:38:21.852Z,24.74
2022-07-25T19:40:48.359Z,24.76
2022-07-25T19:43:15.233Z,24.75
2022-07-25T19:45:42.084Z,24.73
2022-07-25T19:48:08.558Z,24.66
2022-07-25T19:50:35.137Z,24.67
2022-07-25T19:53:02.202Z,24.71
2022-07-25T19:55:28.909Z,24.68
2022-07-25T19:57:55.663Z,24.60
2022-07-25T20:00:22.789Z,24.48
2022-07-25T20:02:49.432Z,24.34
2022-07-25T20:05:17.257Z,24.24
2022-07-25T20:07:43.821Z,24.22
2022-07-25T20:10:10.608Z,24.21
2022-07-25T20:12:38.842Z,24.18
2022-07-25T20:15:05.902Z,24.19
2022-07-25T20:17:32.382Z,24.13
2022-07-25T20:20:00.057Z,24.13
2022-07-25T20:22:26.634Z,24.11
2022-07-25T20:24:53.115Z,23.90
2022-07-25T20:27:19.656Z,23.88
2022-07-25T20:29:46.973Z,23.83
2022-07-25T20:32:14.771Z,23.66
2022-07-25T20:34:41.284Z,23.55
2022-07-25T20:37:09.834Z,23.55
2022-07-25T20:39:36.351Z,23.58
2022-07-25T20:42:02.959Z,23.39
2022-07-25T20:44:29.522Z,23.26
2022-07-25T20:46:56.248Z,23.49
2022-07-25T20:49:23.650Z,23.65
2022-07-25T20:51:54.449Z,23.65
2022-07-25T20:54:21.544Z,23.48
2022-07-25T20:56:48.142Z,23.58
2022-07-25T20:59:14.635Z,23.49
2022-07-25T21:01:41.418Z,23.46
2022-07-25T21:04:08.158Z,23.27
2022-07-25T21:06:35.126Z,23.25
2022-07-25T21:09:04.250Z,23.11
2022-07-25T21:11:30.873Z,23.05
2022-07-25T21:13:57.486Z,23.03
2022-07-25T21:16:24.090Z,22.92
2022-07-25T21:18:50.661Z,22.72
2022-07-25T21:21:20.248Z,22.50
2022-07-25T21:23:47.140Z,22.41
2022-07-25T21:26:13.675Z,22.28
2022-07-25T21:28:40.455Z,22.24
2022-07-25T21:31:07.244Z,22.15
2022-07-25T21:33:33.743Z,22.03
2022-07-25T21:36:00.702Z,21.95
2022-07-25T21:38:29.578Z,21.93
2022-07-25T21:41:00.639Z,21.80
2022-07-25T21:43:27.280Z,21.79
2022-07-25T21:45:53.999Z,21.75
2022-07-25T21:48:40.748Z,21.72
2022-07-25T21:51:10.091Z,21.80
2022-07-25T21:53:47.743Z,21.85
2022-07-25T21:56:17.974Z,21.88
2022-07-25T21:58:44.701Z,21.87
2022-07-25T22:01:11.672Z,21.80
2022-07-25T22:03:38.265Z,21.72
2022-07-25T22:06:04.789Z,21.78
2022-07-25T22:08:31.335Z,21.76
2022-07-25T22:10:58.199Z,21.80
2022-07-25T22:13:25.123Z,21.83
2022-07-25T22:15:51.829Z,21.85
2022-07-25T22:18:18.442Z,21.85
2022-07-25T22:20:47.409Z,21.87
2022-07-25T22:23:13.956Z,21.79
2022-07-25T22:25:40.498Z,21.79
2022-07-25T22:28:10.346Z,21.77
2022-07-25T22:30:41.001Z,21.77
2022-07-25T22:33:07.465Z,21.73
2022-07-25T22:35:33.939Z,21.71
2022-07-25T22:38:00.470Z,21.70
2022-07-25T22:40:27.010Z,21.73
2022-07-25T22:42:53.496Z,21.71
2022-07-25T22:45:23.616Z,21.66
2022-07-25T22:47:50.741Z,21.68
2022-07-25T22:50:17.241Z,21.70
2022-07-25T22:52:43.767Z,21.71
2022-07-25T22:55:10.413Z,21.73
2022-07-25T22:57:37.811Z,21.78
2022-07-25T23:00:07.141Z,21.80
2022-07-25T23:02:33.805Z,21.85
2022-07-25T23:05:00.319Z,21.77
2022-07-25T23:07:26.848Z,21.72
2022-07-25T23:09:53.315Z,21.77
2022-07-25T23:12:19.792Z,21.76
2022-07-25T23:14:46.307Z,21.84
2022-07-25T23:17:19.919Z,21.86
2022-07-25T23:19:52.068Z,21.89
2022-07-25T23:22:19.661Z,21.83
2022-07-25T23:24:46.374Z,21.84
2022-07-25T23:27:13.052Z,21.72
2022-07-25T23:29:39.781Z,21.69
2022-07-25T23:32:07.190Z,21.66
2022-07-25T23:34:34.495Z,21.67
2022-07-25T23:37:01.949Z,21.73
2022-07-25T23:39:29.280Z,21.75
2022-07-25T23:41:55.879Z,21.72
2022-07-25T23:44:22.467Z,21.79
2022-07-25T23:46:50.797Z,21.85
2022-07-25T23:49:17.446Z,21.93
2022-07-25T23:51:44.210Z,21.84
2022-07-25T23:54:10.741Z,21.76
2022-07-25T23:56:37.287Z,21.69
2022-07-25T23:59:04.427Z,21.72
